Nearby METAR Reports

 

KAUS - Austin, Texas, USA
Distance from station: WNW 16mi, 26km
Updated: Mon, 03-Aug-2020 8:53pm CDT
Mostly cloudy
Mostly cloudy
 Wind from calm
Wind: Calm
Temperature: 81°F , 27°C
Heat Index: 85°F , 29°C
Dew Point: 70°F , 21°C
Humidity: 70%
Barometer: 30.00 inHg , 1015.9 hPa
Clouds: Mostly cloudy
Visibility: 10 miles , 16 km
Cloud details: Mostly cloudy 11000 ft
Mostly cloudy 20000 ft
2020/08/04 01:53 KAUS 040153Z 00000KT 10SM BKN110 BKN200 27/21 A3000 RMK AO2 SLP147 T02720211
KEDC - Austin Exec, Texas, USA
Distance from station: NNW 21mi, 34km
Updated: Mon, 03-Aug-2020 2:35pm CDT
NOT Current
Partly cloudy
Partly cloudy
 Wind from ESE
Wind: ESE 7 mph , 11 km/h
Temperature: 97°F , 36°C
Dew Point: 64°F , 18°C
Humidity: 34%
Barometer: 29.99 inHg , 1015.6 hPa
Clouds: Partly cloudy
Visibility: 10 miles , 16 km
Cloud details: Few Clouds 7500 ft
Partly cloudy 9000 ft
2020/08/03 19:35 KEDC 031935Z AUTO 11006KT 10SM FEW075 SCT090 36/18 A2999 RMK AO2
 
KATT - Austin/Mabry, Texas, USA
Distance from station: NW 25mi, 39km
Updated: Mon, 03-Aug-2020 8:51pm CDT
Clear
Clear
 Wind from calm
Wind: Calm
Temperature: 81°F , 27°C
Heat Index: 84°F , 29°C
Dew Point: 68°F , 20°C
Humidity: 66%
Barometer: 30.02 inHg , 1016.6 hPa
Clouds: Clear
Visibility: 10 miles , 16 km
2020/08/04 01:51 KATT 040151Z AUTO 00000KT 10SM CLR 27/20 A3002 RMK AO2 SLP151 T02670200
KGYB - Giddings-Lee, Texas, USA
Distance from station: E 27mi, 43km
Updated: Mon, 03-Aug-2020 9:35pm CDT
Clear
Clear
 Wind from calm
Wind: Calm
Temperature: 84°F , 29°C
Heat Index: 88°F , 31°C
Dew Point: 70°F , 21°C
Humidity: 62%
Barometer: 29.99 inHg , 1015.6 hPa
Clouds: Clear
Visibility: 10 miles , 16 km
2020/08/04 02:35 KGYB 040235Z AUTO 00000KT 10SM CLR 29/21 A2999 RMK AO2 T02910212
 
KHYI - San Marcos, Texas, USA
Distance from station: WSW 31mi, 49km
Updated: Mon, 03-Aug-2020 8:56pm CDT
Clear
Clear
 Wind from SSW
Wind: SSW 5 mph , 7 km/h
Temperature: 75°F , 24°C
Dew Point: 73°F , 23°C
Humidity: 94%
Barometer: 30.03 inHg , 1016.9 hPa
Clouds: Clear
Visibility: 10 miles , 16 km
2020/08/04 01:56 KHYI 040156Z AUTO 20004KT 10SM CLR 24/23 A3003 RMK AO2 RAE07 SLP159 P0000 T02440233
K3T5 - La Grange, Texas, USA
Distance from station: ESE 32mi, 52km
Updated: Mon, 03-Aug-2020 9:35pm CDT
Clear
Clear
 Wind from calm
Wind: Calm
Temperature: 84°F , 29°C
Heat Index: 87°F , 31°C
Dew Point: 68°F , 20°C
Humidity: 58%
Barometer: 29.96 inHg , 1014.6 hPa
Clouds: Clear
Visibility: 10 miles , 16 km
2020/08/04 02:35 K3T5 040235Z AUTO 00000KT 10SM CLR 29/20 A2996 RMK AO2 T02880202
 
KT20 - Gonzales Muni, Texas, USA
Distance from station: S 41mi, 67km
Updated: Mon, 03-Aug-2020 9:35pm CDT
Light rain, Mostly cloudy
Light rain, Mostly cloudy
 Wind from calm
Wind: Calm
Temperature: 75°F , 24°C
Dew Point: 75°F , 24°C
Humidity: 100%
Barometer: 30.01 inHg , 1016.3 hPa
Summary: Light rain
Clouds: Mostly cloudy
Visibility: 10 miles , 16 km
Cloud details: Mostly cloudy 9500 ft
Mostly cloudy 11000 ft
2020/08/04 02:35 KT20 040235Z AUTO 00000KT 10SM -RA BKN095 BKN110 24/24 A3001 RMK AO2 T02430239
KRYW - Lago Vista, Texas, USA
Distance from station: NW 42mi, 67km
Updated: Mon, 03-Aug-2020 9:35pm CDT
Clear
Clear
 Wind from S
Wind: S 3 mph , 6 km/h
Temperature: 73°F , 23°C
Dew Point: 72°F , 22°C
Humidity: 94%
Barometer: 30.04 inHg , 1017.3 hPa
Clouds: Clear
Visibility: 10 miles , 16 km
2020/08/04 02:35 KRYW 040235Z AUTO 18003KT 10SM CLR 23/22 A3004 RMK AO2 T02310215
 
KGTU - Georgetown, Texas, USA
Distance from station: NNW 42mi, 68km
Updated: Mon, 03-Aug-2020 8:56pm CDT
Clear
Clear
 Wind from S
Wind: S 6 mph , 9 km/h
Temperature: 79°F , 26°C
Dew Point: 72°F , 22°C
Humidity: 79%
Barometer: 30.03 inHg , 1016.9 hPa
Clouds: Clear
Visibility: 10 miles , 16 km
2020/08/04 01:56 KGTU 040156Z 17005KT 10SM CLR 26/22 A3003 RMK AO2 SLP162 T02560217
KBAZ - New Braunfels, Texas, USA
Distance from station: SW 46mi, 74km
Updated: Mon, 03-Aug-2020 8:51pm CDT
Clear
Clear
 Wind from S
Wind: S 5 mph , 7 km/h
Temperature: 77°F , 25°C
Dew Point: 72°F , 22°C
Humidity: 83%
Barometer: 30.01 inHg , 1016.3 hPa
Clouds: Clear
Visibility: 10 miles , 16 km
2020/08/04 01:51 KBAZ 040151Z AUTO 17004KT 10SM CLR 25/22 A3001 RMK AO2 SLP152 T02500222